sensor_id;sensor_type;location;lat;lon;timestamp;temperature;humidity
35313;DHT22;21425;50.454;30.466;2023-04-03T00:01:53;4.30;99.90
35313;DHT22;21425;50.454;30.466;2023-04-03T00:04:18;4.20;99.90
35313;DHT22;21425;50.454;30.466;2023-04-03T00:06:44;8.60;99.90
35313;DHT22;21425;50.454;30.466;2023-04-03T00:09:10;5.70;99.90
35313;DHT22;21425;50.454;30.466;2023-04-03T00:11:35;8.60;99.90
35313;DHT22;21425;50.454;30.466;2023-04-03T00:14:01;3.20;99.90
35313;DHT22;21425;50.454;30.466;2023-04-03T00:16:26;5.70;99.90
35313;DHT22;21425;50.454;30.466;2023-04-03T00:18:52;5.90;99.90
35313;DHT22;21425;50.454;30.466;2023-04-03T00:21:17;5.60;99.90
35313;DHT22;21425;50.454;30.466;2023-04-03T00:23:43;5.70;99.90
35313;DHT22;21425;50.454;30.466;2023-04-03T00:26:08;4.90;99.90
35313;DHT22;21425;50.454;30.466;2023-04-03T00:28:34;6.00;99.90
35313;DHT22;21425;50.454;30.466;2023-04-03T00:30:59;3.50;99.90
35313;DHT22;21425;50.454;30.466;2023-04-03T00:33:25;5.60;99.90
35313;DHT22;21425;50.454;30.466;2023-04-03T00:35:50;5.70;99.90
35313;DHT22;21425;50.454;30.466;2023-04-03T00:38:16;5.50;99.90
35313;DHT22;21425;50.454;30.466;2023-04-03T00:40:42;5.70;99.90
35313;DHT22;21425;50.454;30.466;2023-04-03T00:43:12;3.90;99.90
35313;DHT22;21425;50.454;30.466;2023-04-03T00:45:39;5.70;99.90
35313;DHT22;21425;50.454;30.466;2023-04-03T00:48:07;5.50;99.90
35313;DHT22;21425;50.454;30.466;2023-04-03T00:50:34;4.00;99.90
35313;DHT22;21425;50.454;30.466;2023-04-03T00:53:00;5.60;99.90
35313;DHT22;21425;50.454;30.466;2023-04-03T00:55:26;5.00;99.90
35313;DHT22;21425;50.454;30.466;2023-04-03T00:57:52;5.50;99.90
35313;DHT22;21425;50.454;30.466;2023-04-03T01:00:18;5.40;99.90
35313;DHT22;21425;50.454;30.466;2023-04-03T01:02:44;5.50;99.90
35313;DHT22;21425;50.454;30.466;2023-04-03T01:05:10;8.10;99.90
35313;DHT22;21425;50.454;30.466;2023-04-03T01:07:36;4.90;99.90
35313;DHT22;21425;50.454;30.466;2023-04-03T01:10:04;4.20;99.90
35313;DHT22;21425;50.454;30.466;2023-04-03T01:12:32;5.30;99.90
35313;DHT22;21425;50.454;30.466;2023-04-03T01:14:59;5.40;99.90
35313;DHT22;21425;50.454;30.466;2023-04-03T01:17:29;6.40;99.90
35313;DHT22;21425;50.454;30.466;2023-04-03T01:22:54;5.50;99.90
35313;DHT22;21425;50.454;30.466;2023-04-03T01:25:21;5.50;99.90
35313;DHT22;21425;50.454;30.466;2023-04-03T01:27:47;5.50;99.90
35313;DHT22;21425;50.454;30.466;2023-04-03T01:30:12;6.00;99.90
35313;DHT22;21425;50.454;30.466;2023-04-03T01:32:39;5.50;99.90
35313;DHT22;21425;50.454;30.466;2023-04-03T01:35:06;6.60;99.90
35313;DHT22;21425;50.454;30.466;2023-04-03T01:37:32;5.20;99.90
35313;DHT22;21425;50.454;30.466;2023-04-03T01:39:57;5.70;99.90
35313;DHT22;21425;50.454;30.466;2023-04-03T01:42:23;6.90;99.90
35313;DHT22;21425;50.454;30.466;2023-04-03T01:44:48;5.50;99.90
35313;DHT22;21425;50.454;30.466;2023-04-03T01:47:14;5.30;99.90
35313;DHT22;21425;50.454;30.466;2023-04-03T01:49:40;5.50;99.90
35313;DHT22;21425;50.454;30.466;2023-04-03T01:52:05;5.50;99.90
35313;DHT22;21425;50.454;30.466;2023-04-03T01:54:31;5.50;99.90
35313;DHT22;21425;50.454;30.466;2023-04-03T01:56:56;5.80;99.90
35313;DHT22;21425;50.454;30.466;2023-04-03T01:59:22;5.30;99.90
35313;DHT22;21425;50.454;30.466;2023-04-03T02:01:47;9.40;99.90
35313;DHT22;21425;50.454;30.466;2023-04-03T02:04:12;5.50;99.90
35313;DHT22;21425;50.454;30.466;2023-04-03T02:06:38;5.50;99.90
35313;DHT22;21425;50.454;30.466;2023-04-03T02:09:03;7.40;99.90
35313;DHT22;21425;50.454;30.466;2023-04-03T02:11:29;5.70;99.90
35313;DHT22;21425;50.454;30.466;2023-04-03T02:13:55;5.50;99.90
35313;DHT22;21425;50.454;30.466;2023-04-03T02:16:20;8.80;99.90
35313;DHT22;21425;50.454;30.466;2023-04-03T02:18:46;8.50;99.90
35313;DHT22;21425;50.454;30.466;2023-04-03T02:21:11;5.60;99.90
35313;DHT22;21425;50.454;30.466;2023-04-03T02:23:37;6.00;99.90
35313;DHT22;21425;50.454;30.466;2023-04-03T02:26:07;5.60;99.90
35313;DHT22;21425;50.454;30.466;2023-04-03T02:28:32;5.70;99.90
35313;DHT22;21425;50.454;30.466;2023-04-03T02:30:58;5.80;99.90
35313;DHT22;21425;50.454;30.466;2023-04-03T02:33:23;5.80;99.90
35313;DHT22;21425;50.454;30.466;2023-04-03T02:35:52;6.10;99.90
35313;DHT22;21425;50.454;30.466;2023-04-03T02:38:18;5.80;99.90
35313;DHT22;21425;50.454;30.466;2023-04-03T02:40:43;4.60;99.90
35313;DHT22;21425;50.454;30.466;2023-04-03T02:43:09;6.20;99.90
35313;DHT22;21425;50.454;30.466;2023-04-03T02:45:35;6.70;99.90
35313;DHT22;21425;50.454;30.466;2023-04-03T02:48:00;5.60;99.90
35313;DHT22;21425;50.454;30.466;2023-04-03T02:50:26;5.70;99.90
35313;DHT22;21425;50.454;30.466;2023-04-03T02:52:51;6.70;99.90
35313;DHT22;21425;50.454;30.466;2023-04-03T02:55:17;5.50;99.90
35313;DHT22;21425;50.454;30.466;2023-04-03T02:57:42;5.60;99.90
35313;DHT22;21425;50.454;30.466;2023-04-03T03:00:08;2.90;99.90
35313;DHT22;21425;50.454;30.466;2023-04-03T03:02:35;5.60;99.90
35313;DHT22;21425;50.454;30.466;2023-04-03T03:05:00;5.60;99.90
35313;DHT22;21425;50.454;30.466;2023-04-03T03:07:26;7.40;99.90
35313;DHT22;21425;50.454;30.466;2023-04-03T03:09:51;6.40;99.90
35313;DHT22;21425;50.454;30.466;2023-04-03T03:12:16;5.50;99.90
35313;DHT22;21425;50.454;30.466;2023-04-03T03:14:47;5.90;99.90
35313;DHT22;21425;50.454;30.466;2023-04-03T03:17:12;3.90;99.90
35313;DHT22;21425;50.454;30.466;2023-04-03T03:19:38;5.70;99.90
35313;DHT22;21425;50.454;30.466;2023-04-03T03:22:03;5.90;99.90
35313;DHT22;21425;50.454;30.466;2023-04-03T03:24:29;5.70;99.90
35313;DHT22;21425;50.454;30.466;2023-04-03T03:26:55;6.90;99.90
35313;DHT22;21425;50.454;30.466;2023-04-03T03:29:20;5.70;99.90
35313;DHT22;21425;50.454;30.466;2023-04-03T03:31:46;5.70;99.90
35313;DHT22;21425;50.454;30.466;2023-04-03T03:34:11;6.10;99.90
35313;DHT22;21425;50.454;30.466;2023-04-03T03:36:37;5.70;99.90
35313;DHT22;21425;50.454;30.466;2023-04-03T03:39:03;5.70;99.90
35313;DHT22;21425;50.454;30.466;2023-04-03T03:41:28;6.00;99.90
35313;DHT22;21425;50.454;30.466;2023-04-03T03:43:53;5.50;99.90
35313;DHT22;21425;50.454;30.466;2023-04-03T03:46:19;5.60;99.90
35313;DHT22;21425;50.454;30.466;2023-04-03T03:48:45;5.90;99.90
35313;DHT22;21425;50.454;30.466;2023-04-03T03:51:10;5.70;99.90
35313;DHT22;21425;50.454;30.466;2023-04-03T03:53:36;6.10;99.90
35313;DHT22;21425;50.454;30.466;2023-04-03T03:56:01;8.30;99.90
35313;DHT22;21425;50.454;30.466;2023-04-03T03:58:27;4.30;99.90
35313;DHT22;21425;50.454;30.466;2023-04-03T04:00:52;6.20;99.90
35313;DHT22;21425;50.454;30.466;2023-04-03T04:03:17;6.40;99.90
35313;DHT22;21425;50.454;30.466;2023-04-03T04:05:43;7.10;99.90
35313;DHT22;21425;50.454;30.466;2023-04-03T04:08:08;5.70;99.90
35313;DHT22;21425;50.454;30.466;2023-04-03T04:10:34;5.90;99.90
35313;DHT22;21425;50.454;30.466;2023-04-03T04:13:00;6.10;99.90
35313;DHT22;21425;50.454;30.466;2023-04-03T04:15:26;5.70;99.90
35313;DHT22;21425;50.454;30.466;2023-04-03T04:17:52;5.70;99.90
35313;DHT22;21425;50.454;30.466;2023-04-03T04:20:18;5.80;99.90
35313;DHT22;21425;50.454;30.466;2023-04-03T04:22:44;6.20;99.90
35313;DHT22;21425;50.454;30.466;2023-04-03T04:25:09;5.80;99.90
35313;DHT22;21425;50.454;30.466;2023-04-03T04:27:35;8.70;99.90
35313;DHT22;21425;50.454;30.466;2023-04-03T04:30:02;5.40;99.90
35313;DHT22;21425;50.454;30.466;2023-04-03T04:32:28;5.70;99.90
35313;DHT22;21425;50.454;30.466;2023-04-03T04:34:54;5.80;99.90
35313;DHT22;21425;50.454;30.466;2023-04-03T04:37:20;8.20;99.90
35313;DHT22;21425;50.454;30.466;2023-04-03T04:39:45;6.30;99.90
35313;DHT22;21425;50.454;30.466;2023-04-03T04:42:11;5.80;99.90
35313;DHT22;21425;50.454;30.466;2023-04-03T04:44:40;6.00;99.90
35313;DHT22;21425;50.454;30.466;2023-04-03T04:47:06;5.90;99.90
35313;DHT22;21425;50.454;30.466;2023-04-03T04:49:31;5.90;99.90
35313;DHT22;21425;50.454;30.466;2023-04-03T04:51:57;6.10;99.90
35313;DHT22;21425;50.454;30.466;2023-04-03T04:54:22;5.80;99.90
35313;DHT22;21425;50.454;30.466;2023-04-03T04:56:48;5.90;99.90
35313;DHT22;21425;50.454;30.466;2023-04-03T04:59:13;6.30;99.90
35313;DHT22;21425;50.454;30.466;2023-04-03T05:01:39;5.90;99.90
35313;DHT22;21425;50.454;30.466;2023-04-03T05:04:04;8.40;99.90
35313;DHT22;21425;50.454;30.466;2023-04-03T05:06:30;2.90;99.90
35313;DHT22;21425;50.454;30.466;2023-04-03T05:08:57;6.60;99.90
35313;DHT22;21425;50.454;30.466;2023-04-03T05:11:23;6.00;99.90
35313;DHT22;21425;50.454;30.466;2023-04-03T05:13:48;3.00;99.90
35313;DHT22;21425;50.454;30.466;2023-04-03T05:16:14;6.70;99.90
35313;DHT22;21425;50.454;30.466;2023-04-03T05:18:39;8.60;99.90
35313;DHT22;21425;50.454;30.466;2023-04-03T05:21:05;5.10;99.90
35313;DHT22;21425;50.454;30.466;2023-04-03T05:23:30;7.30;99.90
35313;DHT22;21425;50.454;30.466;2023-04-03T05:25:56;6.10;99.90
35313;DHT22;21425;50.454;30.466;2023-04-03T05:28:22;5.90;99.90
35313;DHT22;21425;50.454;30.466;2023-04-03T05:30:54;5.60;99.90
35313;DHT22;21425;50.454;30.466;2023-04-03T05:33:21;6.30;99.90
35313;DHT22;21425;50.454;30.466;2023-04-03T05:35:46;6.30;99.90
35313;DHT22;21425;50.454;30.466;2023-04-03T05:38:12;6.10;99.90
35313;DHT22;21425;50.454;30.466;2023-04-03T05:40:37;6.10;99.90
35313;DHT22;21425;50.454;30.466;2023-04-03T05:43:02;4.80;99.90
35313;DHT22;21425;50.454;30.466;2023-04-03T05:45:28;6.60;99.90
35313;DHT22;21425;50.454;30.466;2023-04-03T05:47:54;6.60;99.90
35313;DHT22;21425;50.454;30.466;2023-04-03T05:50:19;6.40;99.90
35313;DHT22;21425;50.454;30.466;2023-04-03T05:52:45;6.30;99.90
35313;DHT22;21425;50.454;30.466;2023-04-03T05:55:12;4.20;99.90
35313;DHT22;21425;50.454;30.466;2023-04-03T05:57:37;6.30;99.90
35313;DHT22;21425;50.454;30.466;2023-04-03T06:00:06;6.20;99.90
35313;DHT22;21425;50.454;30.466;2023-04-03T06:02:32;6.30;99.90
35313;DHT22;21425;50.454;30.466;2023-04-03T06:04:58;6.30;99.90
35313;DHT22;21425;50.454;30.466;2023-04-03T06:07:24;9.80;99.90
35313;DHT22;21425;50.454;30.466;2023-04-03T06:09:52;6.50;99.90
35313;DHT22;21425;50.454;30.466;2023-04-03T06:12:18;4.90;99.90
35313;DHT22;21425;50.454;30.466;2023-04-03T06:14:44;6.30;99.90
35313;DHT22;21425;50.454;30.466;2023-04-03T06:17:09;9.10;99.90
35313;DHT22;21425;50.454;30.466;2023-04-03T06:19:35;7.40;99.90
35313;DHT22;21425;50.454;30.466;2023-04-03T06:22:01;6.30;99.90
35313;DHT22;21425;50.454;30.466;2023-04-03T06:24:28;6.90;99.90
35313;DHT22;21425;50.454;30.466;2023-04-03T06:26:53;6.50;99.90
35313;DHT22;21425;50.454;30.466;2023-04-03T06:29:19;6.70;99.90
35313;DHT22;21425;50.454;30.466;2023-04-03T06:31:45;6.30;99.90
35313;DHT22;21425;50.454;30.466;2023-04-03T06:34:11;6.40;99.90
35313;DHT22;21425;50.454;30.466;2023-04-03T06:36:38;6.60;99.90
35313;DHT22;21425;50.454;30.466;2023-04-03T06:39:03;6.60;99.90
35313;DHT22;21425;50.454;30.466;2023-04-03T06:41:29;9.00;99.90
35313;DHT22;21425;50.454;30.466;2023-04-03T06:43:55;6.50;99.90
35313;DHT22;21425;50.454;30.466;2023-04-03T06:46:24;9.10;99.90
35313;DHT22;21425;50.454;30.466;2023-04-03T06:48:50;7.40;99.90
35313;DHT22;21425;50.454;30.466;2023-04-03T06:53:45;6.60;99.90
35313;DHT22;21425;50.454;30.466;2023-04-03T06:56:11;9.10;99.90
35313;DHT22;21425;50.454;30.466;2023-04-03T06:58:36;7.20;99.90
35313;DHT22;21425;50.454;30.466;2023-04-03T07:01:02;8.80;99.90
35313;DHT22;21425;50.454;30.466;2023-04-03T07:03:28;6.80;99.90
35313;DHT22;21425;50.454;30.466;2023-04-03T07:05:53;7.20;99.90
35313;DHT22;21425;50.454;30.466;2023-04-03T07:08:19;6.70;99.90
35313;DHT22;21425;50.454;30.466;2023-04-03T07:10:44;6.70;99.90
35313;DHT22;21425;50.454;30.466;2023-04-03T07:13:10;9.40;99.90
35313;DHT22;21425;50.454;30.466;2023-04-03T07:15:36;6.70;99.90
35313;DHT22;21425;50.454;30.466;2023-04-03T07:18:02;7.70;99.90
35313;DHT22;21425;50.454;30.466;2023-04-03T07:20:27;6.90;99.90
35313;DHT22;21425;50.454;30.466;2023-04-03T07:22:53;9.30;99.90
35313;DHT22;21425;50.454;30.466;2023-04-03T07:25:19;7.10;99.90
35313;DHT22;21425;50.454;30.466;2023-04-03T07:27:45;8.80;99.90
35313;DHT22;21425;50.454;30.466;2023-04-03T07:30:10;6.80;99.90
35313;DHT22;21425;50.454;30.466;2023-04-03T07:32:36;6.90;99.90
35313;DHT22;21425;50.454;30.466;2023-04-03T07:35:01;5.70;99.90
35313;DHT22;21425;50.454;30.466;2023-04-03T07:37:27;6.90;99.90
35313;DHT22;21425;50.454;30.466;2023-04-03T07:39:53;8.30;99.90
35313;DHT22;21425;50.454;30.466;2023-04-03T07:42:20;8.10;99.90
35313;DHT22;21425;50.454;30.466;2023-04-03T07:44:45;7.20;99.90
35313;DHT22;21425;50.454;30.466;2023-04-03T07:47:11;7.00;99.90
35313;DHT22;21425;50.454;30.466;2023-04-03T07:49:38;8.30;99.90
35313;DHT22;21425;50.454;30.466;2023-04-03T07:52:05;7.30;99.90
35313;DHT22;21425;50.454;30.466;2023-04-03T07:54:32;7.20;99.90
35313;DHT22;21425;50.454;30.466;2023-04-03T07:56:57;7.40;99.90
35313;DHT22;21425;50.454;30.466;2023-04-03T07:59:23;7.30;99.90
35313;DHT22;21425;50.454;30.466;2023-04-03T08:01:48;7.40;99.90
35313;DHT22;21425;50.454;30.466;2023-04-03T08:04:14;7.40;99.90
35313;DHT22;21425;50.454;30.466;2023-04-03T08:06:39;7.40;99.90
35313;DHT22;21425;50.454;30.466;2023-04-03T08:09:05;7.90;99.90
35313;DHT22;21425;50.454;30.466;2023-04-03T08:11:30;7.40;99.90
35313;DHT22;21425;50.454;30.466;2023-04-03T08:13:56;9.40;99.90
35313;DHT22;21425;50.454;30.466;2023-04-03T08:16:22;11.50;99.90
35313;DHT22;21425;50.454;30.466;2023-04-03T08:18:48;7.70;99.90
35313;DHT22;21425;50.454;30.466;2023-04-03T08:21:14;8.30;99.90
35313;DHT22;21425;50.454;30.466;2023-04-03T08:23:40;7.50;99.90
35313;DHT22;21425;50.454;30.466;2023-04-03T08:26:13;10.50;99.90
35313;DHT22;21425;50.454;30.466;2023-04-03T08:28:39;7.60;99.90
35313;DHT22;21425;50.454;30.466;2023-04-03T08:31:05;7.60;99.90
35313;DHT22;21425;50.454;30.466;2023-04-03T08:33:32;7.70;99.90
35313;DHT22;21425;50.454;30.466;2023-04-03T08:35:58;7.80;99.90
35313;DHT22;21425;50.454;30.466;2023-04-03T08:38:25;7.80;99.90
35313;DHT22;21425;50.454;30.466;2023-04-03T08:43:47;8.00;99.90
35313;DHT22;21425;50.454;30.466;2023-04-03T08:46:18;8.10;99.90
35313;DHT22;21425;50.454;30.466;2023-04-03T08:48:44;8.60;99.90
35313;DHT22;21425;50.454;30.466;2023-04-03T08:51:14;8.20;99.90
35313;DHT22;21425;50.454;30.466;2023-04-03T08:53:42;7.80;99.90
35313;DHT22;21425;50.454;30.466;2023-04-03T08:56:09;9.80;99.90
35313;DHT22;21425;50.454;30.466;2023-04-03T08:58:43;8.20;99.90
35313;DHT22;21425;50.454;30.466;2023-04-03T09:01:24;8.20;99.90
35313;DHT22;21425;50.454;30.466;2023-04-03T09:03:51;8.10;99.90
35313;DHT22;21425;50.454;30.466;2023-04-03T09:06:21;10.20;99.90
35313;DHT22;21425;50.454;30.466;2023-04-03T09:11:18;8.40;99.90
35313;DHT22;21425;50.454;30.466;2023-04-03T09:16:25;7.90;99.90
35313;DHT22;21425;50.454;30.466;2023-04-03T09:18:56;7.70;99.90
35313;DHT22;21425;50.454;30.466;2023-04-03T09:21:36;10.90;99.90
35313;DHT22;21425;50.454;30.466;2023-04-03T09:24:03;7.90;99.90
35313;DHT22;21425;50.454;30.466;2023-04-03T09:26:34;8.10;99.90
35313;DHT22;21425;50.454;30.466;2023-04-03T09:29:02;8.40;99.90
35313;DHT22;21425;50.454;30.466;2023-04-03T09:31:35;8.50;99.90
35313;DHT22;21425;50.454;30.466;2023-04-03T09:36:47;8.60;99.90
35313;DHT22;21425;50.454;30.466;2023-04-03T09:39:16;8.30;99.90
35313;DHT22;21425;50.454;30.466;2023-04-03T09:41:54;8.30;99.90
35313;DHT22;21425;50.454;30.466;2023-04-03T09:44:31;8.30;99.90
35313;DHT22;21425;50.454;30.466;2023-04-03T09:46:57;9.60;99.90
35313;DHT22;21425;50.454;30.466;2023-04-03T09:49:22;9.80;99.90
35313;DHT22;21425;50.454;30.466;2023-04-03T09:51:48;8.60;99.90
35313;DHT22;21425;50.454;30.466;2023-04-03T09:57:12;9.80;99.90
35313;DHT22;21425;50.454;30.466;2023-04-03T09:59:43;8.60;99.90
35313;DHT22;21425;50.454;30.466;2023-04-03T10:04:53;8.90;99.90
35313;DHT22;21425;50.454;30.466;2023-04-03T10:07:26;9.00;99.90
35313;DHT22;21425;50.454;30.466;2023-04-03T10:09:59;8.90;99.90
35313;DHT22;21425;50.454;30.466;2023-04-03T10:12:25;8.90;99.90
35313;DHT22;21425;50.454;30.466;2023-04-03T10:17:18;10.00;99.90
35313;DHT22;21425;50.454;30.466;2023-04-03T10:19:46;8.90;99.90
35313;DHT22;21425;50.454;30.466;2023-04-03T10:22:18;8.70;99.90
35313;DHT22;21425;50.454;30.466;2023-04-03T10:24:53;8.50;99.90
35313;DHT22;21425;50.454;30.466;2023-04-03T10:27:41;8.20;99.90
35313;DHT22;21425;50.454;30.466;2023-04-03T10:32:45;6.70;99.90
35313;DHT22;21425;50.454;30.466;2023-04-03T10:35:18;8.00;99.90
35313;DHT22;21425;50.454;30.466;2023-04-03T10:38:08;7.90;99.90
35313;DHT22;21425;50.454;30.466;2023-04-03T10:43:23;7.70;99.90
35313;DHT22;21425;50.454;30.466;2023-04-03T10:54:05;7.70;99.90
35313;DHT22;21425;50.454;30.466;2023-04-03T10:59:13;7.70;99.90
35313;DHT22;21425;50.454;30.466;2023-04-03T11:01:41;7.70;99.90
35313;DHT22;21425;50.454;30.466;2023-04-03T11:04:07;10.50;99.90
35313;DHT22;21425;50.454;30.466;2023-04-03T11:06:36;9.90;99.90
35313;DHT22;21425;50.454;30.466;2023-04-03T11:09:05;9.40;99.90
35313;DHT22;21425;50.454;30.466;2023-04-03T11:11:33;8.10;99.90
35313;DHT22;21425;50.454;30.466;2023-04-03T11:16:27;8.10;99.90
35313;DHT22;21425;50.454;30.466;2023-04-03T11:19:03;8.20;99.90
35313;DHT22;21425;50.454;30.466;2023-04-03T11:21:34;8.00;99.90
35313;DHT22;21425;50.454;30.466;2023-04-03T11:24:02;8.50;99.90
35313;DHT22;21425;50.454;30.466;2023-04-03T11:26:29;9.40;99.90
35313;DHT22;21425;50.454;30.466;2023-04-03T11:28:58;9.00;99.90
35313;DHT22;21425;50.454;30.466;2023-04-03T11:36:47;7.80;99.90
35313;DHT22;21425;50.454;30.466;2023-04-03T11:41:44;7.70;99.90
35313;DHT22;21425;50.454;30.466;2023-04-03T11:44:30;7.50;99.90
35313;DHT22;21425;50.454;30.466;2023-04-03T11:47:00;7.60;99.90
35313;DHT22;21425;50.454;30.466;2023-04-03T11:50:08;7.50;99.90
35313;DHT22;21425;50.454;30.466;2023-04-03T11:52:32;7.40;99.90
35313;DHT22;21425;50.454;30.466;2023-04-03T11:55:00;7.30;99.90
35313;DHT22;21425;50.454;30.466;2023-04-03T11:57:47;7.20;99.90
35313;DHT22;21425;50.454;30.466;2023-04-03T12:08:25;7.00;99.90
35313;DHT22;21425;50.454;30.466;2023-04-03T12:13:34;6.70;99.90
35313;DHT22;21425;50.454;30.466;2023-04-03T12:16:00;6.60;99.90
35313;DHT22;21425;50.454;30.466;2023-04-03T12:18:42;7.10;99.90
35313;DHT22;21425;50.454;30.466;2023-04-03T12:21:08;6.90;99.90
35313;DHT22;21425;50.454;30.466;2023-04-03T12:23:35;6.90;99.90
35313;DHT22;21425;50.454;30.466;2023-04-03T12:26:03;6.40;99.90
35313;DHT22;21425;50.454;30.466;2023-04-03T12:28:35;6.40;99.90
35313;DHT22;21425;50.454;30.466;2023-04-03T12:31:01;6.90;99.90
35313;DHT22;21425;50.454;30.466;2023-04-03T12:35:57;6.70;99.90
35313;DHT22;21425;50.454;30.466;2023-04-03T12:41:02;6.60;99.90
35313;DHT22;21425;50.454;30.466;2023-04-03T12:43:41;6.30;99.90
35313;DHT22;21425;50.454;30.466;2023-04-03T12:48:50;6.00;99.90
35313;DHT22;21425;50.454;30.466;2023-04-03T12:51:21;6.00;99.90
35313;DHT22;21425;50.454;30.466;2023-04-03T12:53:48;5.80;99.90
35313;DHT22;21425;50.454;30.466;2023-04-03T12:56:18;7.70;99.90
35313;DHT22;21425;50.454;30.466;2023-04-03T12:58:44;2.60;99.90
35313;DHT22;21425;50.454;30.466;2023-04-03T13:01:11;7.30;99.90
35313;DHT22;21425;50.454;30.466;2023-04-03T13:03:38;5.80;99.90
35313;DHT22;21425;50.454;30.466;2023-04-03T13:06:04;5.60;99.90
35313;DHT22;21425;50.454;30.466;2023-04-03T13:08:30;5.50;99.90
35313;DHT22;21425;50.454;30.466;2023-04-03T13:11:04;5.60;99.90
35313;DHT22;21425;50.454;30.466;2023-04-03T13:13:31;5.50;99.90
35313;DHT22;21425;50.454;30.466;2023-04-03T13:15:57;5.60;99.90
35313;DHT22;21425;50.454;30.466;2023-04-03T13:20:48;6.10;99.90
35313;DHT22;21425;50.454;30.466;2023-04-03T13:23:14;5.60;99.90
35313;DHT22;21425;50.454;30.466;2023-04-03T13:25:43;5.50;99.90
35313;DHT22;21425;50.454;30.466;2023-04-03T13:28:11;5.30;99.90
35313;DHT22;21425;50.454;30.466;2023-04-03T13:30:38;5.10;99.90
35313;DHT22;21425;50.454;30.466;2023-04-03T13:33:05;5.80;99.90
35313;DHT22;21425;50.454;30.466;2023-04-03T13:35:33;5.40;99.90
35313;DHT22;21425;50.454;30.466;2023-04-03T13:38:00;5.40;99.90
35313;DHT22;21425;50.454;30.466;2023-04-03T13:40:26;5.40;99.90
35313;DHT22;21425;50.454;30.466;2023-04-03T13:42:59;5.80;99.90
35313;DHT22;21425;50.454;30.466;2023-04-03T13:45:26;5.20;99.90
35313;DHT22;21425;50.454;30.466;2023-04-03T13:48:06;5.30;99.90
35313;DHT22;21425;50.454;30.466;2023-04-03T13:50:48;5.60;99.90
35313;DHT22;21425;50.454;30.466;2023-04-03T13:53:15;5.20;99.90
35313;DHT22;21425;50.454;30.466;2023-04-03T13:58:24;5.10;99.90
35313;DHT22;21425;50.454;30.466;2023-04-03T14:03:34;5.00;99.90
35313;DHT22;21425;50.454;30.466;2023-04-03T14:06:07;5.00;99.90
35313;DHT22;21425;50.454;30.466;2023-04-03T14:08:33;4.90;99.90
35313;DHT22;21425;50.454;30.466;2023-04-03T14:10:59;4.80;99.90
35313;DHT22;21425;50.454;30.466;2023-04-03T14:13:25;5.10;99.90
35313;DHT22;21425;50.454;30.466;2023-04-03T14:15:51;4.80;99.90
35313;DHT22;21425;50.454;30.466;2023-04-03T14:18:18;8.20;99.90
35313;DHT22;21425;50.454;30.466;2023-04-03T14:20:44;4.60;99.90
35313;DHT22;21425;50.454;30.466;2023-04-03T14:23:09;5.70;99.90
35313;DHT22;21425;50.454;30.466;2023-04-03T14:25:36;4.70;99.90
35313;DHT22;21425;50.454;30.466;2023-04-03T14:28:06;4.70;99.90
35313;DHT22;21425;50.454;30.466;2023-04-03T14:30:37;4.90;99.90
35313;DHT22;21425;50.454;30.466;2023-04-03T14:33:03;4.90;99.90
35313;DHT22;21425;50.454;30.466;2023-04-03T14:35:28;4.50;99.90
35313;DHT22;21425;50.454;30.466;2023-04-03T14:37:54;4.50;99.90
35313;DHT22;21425;50.454;30.466;2023-04-03T14:40:23;4.40;99.90
35313;DHT22;21425;50.454;30.466;2023-04-03T14:42:49;4.40;99.90
35313;DHT22;21425;50.454;30.466;2023-04-03T14:45:15;4.50;99.90
35313;DHT22;21425;50.454;30.466;2023-04-03T14:47:53;4.80;99.90
35313;DHT22;21425;50.454;30.466;2023-04-03T14:50:21;4.40;99.90
35313;DHT22;21425;50.454;30.466;2023-04-03T14:52:46;4.10;99.90
35313;DHT22;21425;50.454;30.466;2023-04-03T14:55:14;3.30;99.90
35313;DHT22;21425;50.454;30.466;2023-04-03T14:57:40;4.20;99.90
35313;DHT22;21425;50.454;30.466;2023-04-03T15:00:07;4.20;99.90
35313;DHT22;21425;50.454;30.466;2023-04-03T15:02:36;4.20;99.90
35313;DHT22;21425;50.454;30.466;2023-04-03T15:05:04;4.30;99.90
35313;DHT22;21425;50.454;30.466;2023-04-03T15:07:31;4.40;99.90
35313;DHT22;21425;50.454;30.466;2023-04-03T15:09:58;4.30;99.90
35313;DHT22;21425;50.454;30.466;2023-04-03T15:12:24;4.70;99.90
35313;DHT22;21425;50.454;30.466;2023-04-03T15:14:50;4.20;99.90
35313;DHT22;21425;50.454;30.466;2023-04-03T15:17:16;4.30;99.90
35313;DHT22;21425;50.454;30.466;2023-04-03T15:19:43;4.00;99.90
35313;DHT22;21425;50.454;30.466;2023-04-03T15:22:18;4.00;99.90
35313;DHT22;21425;50.454;30.466;2023-04-03T15:24:44;4.10;99.90
35313;DHT22;21425;50.454;30.466;2023-04-03T15:27:09;3.60;99.90
35313;DHT22;21425;50.454;30.466;2023-04-03T15:29:36;3.90;99.90
35313;DHT22;21425;50.454;30.466;2023-04-03T15:32:02;3.80;99.90
35313;DHT22;21425;50.454;30.466;2023-04-03T15:34:28;3.90;99.90
35313;DHT22;21425;50.454;30.466;2023-04-03T15:36:53;3.70;99.90
35313;DHT22;21425;50.454;30.466;2023-04-03T15:39:19;4.00;99.90
35313;DHT22;21425;50.454;30.466;2023-04-03T15:41:45;3.40;99.90
35313;DHT22;21425;50.454;30.466;2023-04-03T15:44:11;5.50;99.90
35313;DHT22;21425;50.454;30.466;2023-04-03T15:46:37;3.70;99.90
35313;DHT22;21425;50.454;30.466;2023-04-03T15:49:04;3.90;99.90
35313;DHT22;21425;50.454;30.466;2023-04-03T15:51:30;3.80;99.90
35313;DHT22;21425;50.454;30.466;2023-04-03T15:53:55;4.00;99.90
35313;DHT22;21425;50.454;30.466;2023-04-03T15:56:21;3.50;99.90
35313;DHT22;21425;50.454;30.466;2023-04-03T15:58:46;3.40;99.90
35313;DHT22;21425;50.454;30.466;2023-04-03T16:01:12;3.70;99.90
35313;DHT22;21425;50.454;30.466;2023-04-03T16:03:39;3.40;99.90
35313;DHT22;21425;50.454;30.466;2023-04-03T16:06:13;3.60;99.90
35313;DHT22;21425;50.454;30.466;2023-04-03T16:08:39;3.40;99.90
35313;DHT22;21425;50.454;30.466;2023-04-03T16:11:05;1.90;99.90
35313;DHT22;21425;50.454;30.466;2023-04-03T16:13:31;3.60;99.90
35313;DHT22;21425;50.454;30.466;2023-04-03T16:15:58;3.00;99.90
35313;DHT22;21425;50.454;30.466;2023-04-03T16:18:23;3.30;99.90
35313;DHT22;21425;50.454;30.466;2023-04-03T16:20:49;5.80;99.90
35313;DHT22;21425;50.454;30.466;2023-04-03T16:23:14;3.10;99.90
35313;DHT22;21425;50.454;30.466;2023-04-03T16:25:40;3.70;99.90
35313;DHT22;21425;50.454;30.466;2023-04-03T16:28:10;3.10;99.90
35313;DHT22;21425;50.454;30.466;2023-04-03T16:30:36;3.00;99.90
35313;DHT22;21425;50.454;30.466;2023-04-03T16:33:02;3.20;99.90
35313;DHT22;21425;50.454;30.466;2023-04-03T16:35:27;4.50;99.90
35313;DHT22;21425;50.454;30.466;2023-04-03T16:37:53;3.10;99.90
35313;DHT22;21425;50.454;30.466;2023-04-03T16:40:19;3.50;99.90
35313;DHT22;21425;50.454;30.466;2023-04-03T16:42:45;3.00;99.90
35313;DHT22;21425;50.454;30.466;2023-04-03T16:45:11;3.10;99.90
35313;DHT22;21425;50.454;30.466;2023-04-03T16:47:36;6.30;99.90